createdAt,value
2022-10-11T00:00:40.255Z,11.13
2022-10-11T00:01:42.092Z,11.12
2022-10-11T00:02:43.720Z,11.11
2022-10-11T00:03:45.467Z,11.1
2022-10-11T00:04:47.230Z,11.1
2022-10-11T00:05:48.937Z,11.09
2022-10-11T00:06:50.662Z,11.08
2022-10-11T00:07:52.394Z,11.08
2022-10-11T00:08:54.136Z,11.07
2022-10-11T00:09:55.894Z,11.07
2022-10-11T00:10:57.609Z,11.06
2022-10-11T00:11:59.343Z,11.05
2022-10-11T00:13:01.098Z,11.03
2022-10-11T00:14:02.805Z,11.02
2022-10-11T00:15:04.565Z,11.02
2022-10-11T00:16:06.664Z,11.01
2022-10-11T00:17:08.008Z,11.02
2022-10-11T00:18:09.772Z,11.03
2022-10-11T00:19:11.484Z,11.03
2022-10-11T00:20:13.255Z,11.04
2022-10-11T00:21:14.966Z,11.05
2022-10-11T00:22:16.688Z,11.06
2022-10-11T00:23:18.441Z,11.08
2022-10-11T00:24:20.157Z,11.09
2022-10-11T00:25:21.894Z,11.11
2022-10-11T00:26:23.638Z,11.14
2022-10-11T00:27:25.361Z,11.15
2022-10-11T00:28:27.170Z,11.17
2022-10-11T00:29:28.834Z,11.18
2022-10-11T00:30:30.582Z,11.19
2022-10-11T00:31:35.657Z,11.21
2022-10-11T00:32:34.047Z,11.23
2022-10-11T00:33:35.777Z,11.26
2022-10-11T00:34:37.510Z,11.27
2022-10-11T00:35:39.243Z,11.28
2022-10-11T00:36:40.991Z,11.3
2022-10-11T00:37:42.713Z,11.31
2022-10-11T00:38:44.448Z,11.32
2022-10-11T00:39:46.204Z,11.34
2022-10-11T00:40:47.914Z,11.35
2022-10-11T00:41:49.642Z,11.36
2022-10-11T00:42:51.400Z,11.36
2022-10-11T00:43:53.122Z,11.38
2022-10-11T00:44:54.879Z,11.38
2022-10-11T00:45:56.585Z,11.39
2022-10-11T00:46:58.322Z,11.38
2022-10-11T00:48:00.073Z,11.39
2022-10-11T00:49:01.793Z,11.4
2022-10-11T00:50:03.564Z,11.39
2022-10-11T00:51:05.614Z,11.38
2022-10-11T00:52:06.995Z,11.39
2022-10-11T00:53:08.737Z,11.39
2022-10-11T00:54:10.471Z,11.39
2022-10-11T00:55:12.220Z,11.39
2022-10-11T00:56:13.947Z,11.37
2022-10-11T00:57:15.680Z,11.37
2022-10-11T00:58:17.395Z,11.36
2022-10-11T00:59:19.145Z,11.36
2022-10-11T01:00:20.883Z,11.35
2022-10-11T01:01:22.747Z,11.34
2022-10-11T01:02:24.348Z,11.34
2022-10-11T01:03:26.150Z,11.33
2022-10-11T01:04:27.814Z,11.33
2022-10-11T01:05:30.340Z,11.32
2022-10-11T01:06:31.291Z,11.31
2022-10-11T01:07:33.024Z,11.3
2022-10-11T01:08:34.770Z,11.29
2022-10-11T01:09:36.521Z,11.29
2022-10-11T01:10:38.233Z,11.28
2022-10-11T01:11:39.969Z,11.27
2022-10-11T01:12:41.689Z,11.26
2022-10-11T01:13:43.430Z,11.25
2022-10-11T01:14:45.185Z,11.25
2022-10-11T01:15:46.905Z,11.24
2022-10-11T01:16:48.647Z,11.23
2022-10-11T01:17:50.379Z,11.23
2022-10-11T01:18:52.124Z,11.22
2022-10-11T01:19:53.859Z,11.21
2022-10-11T01:20:55.580Z,11.21
2022-10-11T01:21:57.310Z,11.2
2022-10-11T01:22:59.045Z,11.19
2022-10-11T01:24:04.686Z,11.19
2022-10-11T01:25:02.506Z,11.2
2022-10-11T01:26:04.454Z,11.19
2022-10-11T01:27:05.990Z,11.18
2022-10-11T01:28:07.786Z,11.19
2022-10-11T01:29:09.452Z,11.18
2022-10-11T01:30:11.205Z,11.19
2022-10-11T01:31:12.926Z,11.19
2022-10-11T01:32:14.676Z,11.17
2022-10-11T01:33:16.424Z,11.19
2022-10-11T01:34:18.137Z,11.19
2022-10-11T01:35:19.862Z,11.19
2022-10-11T01:36:21.599Z,11.19
2022-10-11T01:37:23.334Z,11.19
2022-10-11T01:38:25.064Z,11.19
2022-10-11T01:39:26.827Z,11.19
2022-10-11T01:40:28.540Z,11.19
2022-10-11T01:41:30.288Z,11.2
2022-10-11T01:42:32.019Z,11.2
2022-10-11T01:43:33.740Z,11.2
2022-10-11T01:44:35.493Z,11.19
2022-10-11T01:45:37.225Z,11.2
2022-10-11T01:46:38.962Z,11.19
2022-10-11T01:47:40.697Z,11.19
2022-10-11T01:48:42.424Z,11.18
2022-10-11T01:49:44.147Z,11.17
2022-10-11T01:50:45.894Z,11.17
2022-10-11T01:51:47.756Z,11.16
2022-10-11T01:52:49.348Z,11.16
2022-10-11T01:53:51.085Z,11.13
2022-10-11T01:55:08.668Z,11.13
2022-10-11T01:55:54.563Z,11.12
2022-10-11T01:56:56.297Z,11.11
2022-10-11T01:57:58.028Z,11.11
2022-10-11T01:58:59.763Z,11.11
2022-10-11T02:00:01.505Z,11.1
2022-10-11T02:01:03.292Z,11.1
2022-10-11T02:02:04.996Z,11.09
2022-10-11T02:03:06.840Z,11.1
2022-10-11T02:04:08.425Z,11.09
2022-10-11T02:05:10.170Z,11.08
2022-10-11T02:06:11.899Z,11.07
2022-10-11T02:07:13.647Z,11.06
2022-10-11T02:08:15.370Z,11.05
2022-10-11T02:09:17.118Z,11.05
2022-10-11T02:10:18.866Z,11.04
2022-10-11T02:11:20.594Z,11.03
2022-10-11T02:12:22.309Z,11.01
2022-10-11T02:13:24.144Z,11
2022-10-11T02:14:25.792Z,10.99
2022-10-11T02:15:27.529Z,10.97
2022-10-11T02:16:29.266Z,10.96
2022-10-11T02:17:31.001Z,10.95
2022-10-11T02:18:32.737Z,10.93
2022-10-11T02:19:34.458Z,10.91
2022-10-11T02:20:36.215Z,10.9
2022-10-11T02:21:39.270Z,10.87
2022-10-11T02:22:39.666Z,10.85
2022-10-11T02:23:41.407Z,10.84
2022-10-11T02:24:43.147Z,10.82
2022-10-11T02:25:45.244Z,10.79
2022-10-11T02:26:46.597Z,10.78
2022-10-11T02:27:48.349Z,10.75
2022-10-11T02:28:50.141Z,10.74
2022-10-11T02:29:51.812Z,10.72
2022-10-11T02:30:53.564Z,10.7
2022-10-11T02:31:55.281Z,10.68
2022-10-11T02:32:57.028Z,10.67
2022-10-11T02:33:58.751Z,10.65
2022-10-11T02:35:00.499Z,10.63
2022-10-11T02:36:02.555Z,10.61
2022-10-11T02:37:03.963Z,10.59
2022-10-11T02:38:05.792Z,10.58
2022-10-11T02:39:07.467Z,10.55
2022-10-11T02:40:09.177Z,10.53
2022-10-11T02:41:10.896Z,10.5
2022-10-11T02:42:12.630Z,10.48
2022-10-11T02:43:14.371Z,10.45
2022-10-11T02:44:16.108Z,10.43
2022-10-11T02:45:17.835Z,10.41
2022-10-11T02:46:19.590Z,10.39
2022-10-11T02:47:21.309Z,10.37
2022-10-11T02:48:23.065Z,10.35
2022-10-11T02:49:24.789Z,10.34
2022-10-11T02:50:26.549Z,10.32
2022-10-11T02:51:28.240Z,10.31
2022-10-11T02:52:29.984Z,10.28
2022-10-11T02:53:31.722Z,10.26
2022-10-11T02:54:33.457Z,10.25
2022-10-11T02:55:35.194Z,10.22
2022-10-11T02:56:36.929Z,10.21
2022-10-11T02:57:38.662Z,10.2
2022-10-11T02:58:40.398Z,10.17
2022-10-11T02:59:42.156Z,10.16
2022-10-11T03:00:43.866Z,10.13
2022-10-11T03:01:45.669Z,10.1
2022-10-11T03:02:47.329Z,10.09
2022-10-11T03:03:49.066Z,10.06
2022-10-11T03:04:50.809Z,10.05
2022-10-11T03:05:52.536Z,10.02
2022-10-11T03:06:54.286Z,10
2022-10-11T03:07:56.004Z,9.98
2022-10-11T03:08:57.753Z,9.95
2022-10-11T03:09:59.476Z,9.93
2022-10-11T03:11:01.205Z,9.91
2022-10-11T03:12:02.952Z,9.88
2022-10-11T03:13:04.673Z,9.85
2022-10-11T03:14:06.395Z,9.82
2022-10-11T03:15:08.166Z,9.78
2022-10-11T03:16:10.222Z,9.75
2022-10-11T03:17:34.651Z,9.74
2022-10-11T03:18:13.360Z,9.71
2022-10-11T03:19:19.192Z,9.68
2022-10-11T03:20:16.833Z,9.66
2022-10-11T03:21:18.553Z,9.63
2022-10-11T03:22:20.292Z,9.6
2022-10-11T03:23:22.036Z,9.58
2022-10-11T03:24:23.768Z,9.55
2022-10-11T03:25:25.498Z,9.52
2022-10-11T03:26:27.211Z,9.49
2022-10-11T03:27:28.981Z,9.47
2022-10-11T03:28:30.835Z,9.44
2022-10-11T03:29:32.438Z,9.42
2022-10-11T03:30:34.187Z,9.4
2022-10-11T03:31:35.909Z,9.36
2022-10-11T03:32:37.638Z,9.35
2022-10-11T03:33:39.371Z,9.33
2022-10-11T03:34:41.096Z,9.31
2022-10-11T03:35:42.861Z,9.28
2022-10-11T03:36:44.585Z,9.27
2022-10-11T03:37:46.318Z,9.23
2022-10-11T03:38:48.047Z,9.21
2022-10-11T03:39:49.776Z,9.2
2022-10-11T03:40:51.513Z,9.16
2022-10-11T03:41:53.235Z,9.14
2022-10-11T03:42:54.982Z,9.11
2022-10-11T03:43:56.723Z,9.1
2022-10-11T03:44:58.450Z,9.06
2022-10-11T03:46:00.210Z,9.03
2022-10-11T03:47:01.913Z,9
2022-10-11T03:48:03.648Z,8.98
2022-10-11T03:49:05.403Z,8.95
2022-10-11T03:50:07.118Z,8.91
2022-10-11T03:51:08.863Z,8.89
2022-10-11T03:52:10.589Z,8.86
2022-10-11T03:53:12.350Z,8.83
2022-10-11T03:54:14.062Z,8.8
2022-10-11T03:55:15.796Z,8.78
2022-10-11T03:56:17.530Z,8.76
2022-10-11T03:57:19.254Z,8.74
2022-10-11T03:58:21.008Z,8.71
2022-10-11T03:59:22.747Z,8.69
2022-10-11T04:00:24.459Z,8.67
2022-10-11T04:01:26.257Z,8.65
2022-10-11T04:02:27.942Z,8.62
2022-10-11T04:03:29.674Z,8.61
2022-10-11T04:04:31.420Z,8.59
2022-10-11T04:05:33.147Z,8.57
2022-10-11T04:06:34.894Z,8.55
2022-10-11T04:07:36.605Z,8.52
2022-10-11T04:08:38.378Z,8.5
2022-10-11T04:09:40.079Z,8.5
2022-10-11T04:10:41.841Z,8.48
2022-10-11T04:11:43.564Z,8.47
2022-10-11T04:12:45.290Z,8.45
2022-10-11T04:13:47.018Z,8.44
2022-10-11T04:14:48.767Z,8.41
2022-10-11T04:15:50.495Z,8.4
2022-10-11T04:16:52.244Z,8.38
2022-10-11T04:17:53.973Z,8.37
2022-10-11T04:18:55.697Z,8.34
2022-10-11T04:19:57.432Z,8.32
2022-10-11T04:20:59.172Z,8.3
2022-10-11T04:22:00.898Z,8.28
2022-10-11T04:23:02.629Z,8.26
2022-10-11T04:24:04.375Z,8.24
2022-10-11T04:25:06.099Z,8.22
2022-10-11T04:26:08.307Z,8.19
2022-10-11T04:27:09.627Z,8.18
2022-10-11T04:28:11.364Z,8.15
2022-10-11T04:29:13.049Z,8.14
2022-10-11T04:30:14.765Z,8.12
2022-10-11T04:31:16.505Z,8.1
2022-10-11T04:32:18.252Z,8.09
2022-10-11T04:33:19.975Z,8.08
2022-10-11T04:34:21.702Z,8.07
2022-10-11T04:35:23.458Z,8.06
2022-10-11T04:36:25.200Z,8.04
2022-10-11T04:37:26.915Z,8.04
2022-10-11T04:38:28.672Z,8.02
2022-10-11T04:39:30.382Z,8.02
2022-10-11T04:40:32.112Z,8
2022-10-11T04:41:33.926Z,8
2022-10-11T04:42:35.613Z,7.98
2022-10-11T04:43:37.320Z,7.98
2022-10-11T04:44:39.049Z,7.97
2022-10-11T04:45:40.792Z,7.96
2022-10-11T04:46:42.530Z,7.96
2022-10-11T04:47:44.254Z,7.96
2022-10-11T04:48:46.027Z,7.95
2022-10-11T04:49:47.715Z,7.95
2022-10-11T04:50:49.476Z,7.95
2022-10-11T04:51:51.206Z,7.94
2022-10-11T04:52:52.941Z,7.94
2022-10-11T04:53:54.658Z,7.94
2022-10-11T04:54:56.407Z,7.93
2022-10-11T04:55:58.144Z,7.92
2022-10-11T04:56:59.882Z,7.92
2022-10-11T04:58:01.597Z,7.91
2022-10-11T04:59:03.344Z,7.91
2022-10-11T05:00:05.095Z,7.9
2022-10-11T05:01:06.813Z,7.89
2022-10-11T05:02:08.590Z,7.89
2022-10-11T05:03:10.288Z,7.87
2022-10-11T05:04:12.024Z,7.87
2022-10-11T05:05:13.766Z,7.87
2022-10-11T05:06:15.494Z,7.86
2022-10-11T05:07:17.235Z,7.86
2022-10-11T05:08:18.958Z,7.86
2022-10-11T05:09:20.706Z,7.86
2022-10-11T05:10:22.433Z,7.86
2022-10-11T05:11:24.150Z,7.86
2022-10-11T05:12:25.900Z,7.86
2022-10-11T05:13:27.633Z,7.86
2022-10-11T05:14:29.360Z,7.85
2022-10-11T05:15:31.139Z,7.85
2022-10-11T05:16:32.846Z,7.85
2022-10-11T05:17:34.571Z,7.85
2022-10-11T05:18:36.305Z,7.84
2022-10-11T05:19:38.051Z,7.83
2022-10-11T05:20:39.776Z,7.84
2022-10-11T05:21:41.511Z,7.82
2022-10-11T05:22:43.239Z,7.81
2022-10-11T05:23:44.979Z,7.8
2022-10-11T05:24:46.707Z,7.79
2022-10-11T05:25:48.435Z,7.79
2022-10-11T05:26:50.168Z,7.78
2022-10-11T05:27:51.919Z,7.78
2022-10-11T05:28:53.736Z,7.77
2022-10-11T05:29:55.380Z,7.75
2022-10-11T05:30:57.126Z,7.75
2022-10-11T05:31:58.856Z,7.74
2022-10-11T05:33:00.583Z,7.73
2022-10-11T05:34:02.320Z,7.72
2022-10-11T05:35:04.053Z,7.71
2022-10-11T05:36:06.274Z,7.7
2022-10-11T05:37:07.526Z,7.68
2022-10-11T05:38:09.268Z,7.67
2022-10-11T05:39:10.991Z,7.65
2022-10-11T05:40:12.756Z,7.64
2022-10-11T05:41:14.764Z,7.63
2022-10-11T05:42:16.191Z,7.61
2022-10-11T05:43:17.943Z,7.6
2022-10-11T05:44:19.669Z,7.58
2022-10-11T05:45:21.406Z,7.56
2022-10-11T05:46:23.137Z,7.54
2022-10-11T05:47:24.989Z,7.52
2022-10-11T05:48:26.629Z,7.51
2022-10-11T05:49:28.350Z,7.49
2022-10-11T05:50:30.105Z,7.47
2022-10-11T05:51:31.810Z,7.46
2022-10-11T05:52:33.548Z,7.45
2022-10-11T05:53:35.283Z,7.43
2022-10-11T05:54:38.031Z,7.41
2022-10-11T05:55:38.799Z,7.4
2022-10-11T05:56:40.491Z,7.4
2022-10-11T05:57:42.238Z,7.38
2022-10-11T05:58:43.967Z,7.38
2022-10-11T05:59:45.693Z,7.37
2022-10-11T06:00:47.464Z,7.36
2022-10-11T06:01:49.275Z,7.36
2022-10-11T06:02:50.897Z,7.35
2022-10-11T06:03:52.647Z,7.34
2022-10-11T06:04:54.374Z,7.33
2022-10-11T06:05:57.325Z,7.31
2022-10-11T06:06:57.848Z,7.31
2022-10-11T06:07:59.575Z,7.31
2022-10-11T06:09:01.320Z,7.29
2022-10-11T06:10:03.052Z,7.29
2022-10-11T06:11:07.274Z,7.28
2022-10-11T06:12:06.521Z,7.27
2022-10-11T06:13:08.258Z,7.26
2022-10-11T06:14:09.990Z,7.25
2022-10-11T06:15:11.720Z,7.24
2022-10-11T06:16:13.455Z,7.23
2022-10-11T06:17:15.194Z,7.21
2022-10-11T06:18:16.933Z,7.22
2022-10-11T06:19:18.677Z,7.2
2022-10-11T06:20:20.409Z,7.2
2022-10-11T06:21:22.134Z,7.21
2022-10-11T06:22:23.855Z,7.2
2022-10-11T06:23:25.589Z,7.2
2022-10-11T06:24:27.316Z,7.19
2022-10-11T06:25:29.089Z,7.19
2022-10-11T06:26:30.796Z,7.18
2022-10-11T06:27:32.527Z,7.18
2022-10-11T06:28:34.376Z,7.18
2022-10-11T06:29:36.000Z,7.18
2022-10-11T06:30:37.747Z,7.18
2022-10-11T06:31:39.450Z,7.18
2022-10-11T06:32:41.207Z,7.18
2022-10-11T06:33:42.932Z,7.18
2022-10-11T06:34:44.684Z,7.17
2022-10-11T06:35:46.425Z,7.16
2022-10-11T06:36:48.144Z,7.17
2022-10-11T06:37:49.885Z,7.16
2022-10-11T06:38:51.617Z,7.15
2022-10-11T06:39:53.357Z,7.15
2022-10-11T06:40:55.107Z,7.15
2022-10-11T06:41:56.819Z,7.14
2022-10-11T06:42:58.556Z,7.15
2022-10-11T06:44:00.290Z,7.15
2022-10-11T06:45:02.010Z,7.15
2022-10-11T06:46:04.158Z,7.15
2022-10-11T06:47:05.498Z,7.14
2022-10-11T06:48:07.264Z,7.15
2022-10-11T06:49:08.958Z,7.15
2022-10-11T06:50:10.691Z,7.15
2022-10-11T06:51:12.433Z,7.16
2022-10-11T06:52:14.188Z,7.16
2022-10-11T06:53:15.896Z,7.17
2022-10-11T06:54:17.635Z,7.17
2022-10-11T06:55:19.376Z,7.18
2022-10-11T06:56:21.095Z,7.19
2022-10-11T06:57:22.835Z,7.21
2022-10-11T06:58:24.573Z,7.23
2022-10-11T06:59:26.306Z,7.25
2022-10-11T07:00:28.073Z,7.26
2022-10-11T07:01:29.854Z,7.29
2022-10-11T07:02:31.517Z,7.33
2022-10-11T07:03:33.273Z,7.34
2022-10-11T07:04:34.988Z,7.37
2022-10-11T07:05:36.747Z,7.42
2022-10-11T07:06:38.447Z,7.47
2022-10-11T07:07:40.190Z,7.52
2022-10-11T07:08:41.929Z,7.57
2022-10-11T07:09:43.666Z,7.64
2022-10-11T07:10:45.434Z,7.69
2022-10-11T07:11:47.158Z,7.76
2022-10-11T07:12:48.870Z,7.82
2022-10-11T07:13:50.603Z,7.85
2022-10-11T07:14:52.338Z,7.9
2022-10-11T07:15:54.077Z,7.94
2022-10-11T07:16:55.818Z,7.96
2022-10-11T07:17:57.540Z,7.98
2022-10-11T07:19:00.699Z,8.01
2022-10-11T07:20:01.014Z,8.04
2022-10-11T07:21:02.741Z,8.09
2022-10-11T07:22:04.478Z,8.13
2022-10-11T07:23:06.210Z,8.21
2022-10-11T07:24:07.956Z,8.25
2022-10-11T07:25:09.686Z,8.32
2022-10-11T07:26:11.432Z,8.39
2022-10-11T07:27:13.145Z,8.42
2022-10-11T07:28:14.939Z,8.47
2022-10-11T07:29:16.636Z,8.52
2022-10-11T07:30:18.387Z,8.56
2022-10-11T07:31:20.079Z,8.59
2022-10-11T07:32:21.835Z,8.62
2022-10-11T07:33:23.553Z,8.64
2022-10-11T07:34:25.540Z,8.65
2022-10-11T07:35:27.051Z,8.66
2022-10-11T07:36:28.792Z,8.67
2022-10-11T07:37:30.509Z,8.68
2022-10-11T07:38:32.246Z,8.69
2022-10-11T07:39:33.994Z,8.69
2022-10-11T07:40:35.740Z,8.7
2022-10-11T07:41:39.730Z,8.7
2022-10-11T07:42:39.180Z,8.72
2022-10-11T07:43:40.930Z,8.72
2022-10-11T07:44:42.657Z,8.73
2022-10-11T07:45:44.388Z,8.81
2022-10-11T07:46:46.125Z,8.87
2022-10-11T07:47:47.857Z,8.99
2022-10-11T07:48:49.606Z,9.17
2022-10-11T07:49:51.340Z,9.26
2022-10-11T07:50:53.096Z,9.27
2022-10-11T07:51:54.802Z,9.33
2022-10-11T07:52:56.518Z,9.39
2022-10-11T07:53:58.279Z,9.49
2022-10-11T07:55:00.002Z,9.51
2022-10-11T07:56:02.171Z,9.53
2022-10-11T07:57:03.472Z,9.55
2022-10-11T07:58:05.206Z,9.56
2022-10-11T07:59:06.948Z,9.59
2022-10-11T08:00:08.672Z,9.59
2022-10-11T08:01:10.479Z,9.6
2022-10-11T08:02:12.146Z,9.6
2022-10-11T08:03:13.887Z,9.64
2022-10-11T08:04:15.616Z,9.65
2022-10-11T08:05:17.347Z,9.75
2022-10-11T08:06:19.080Z,9.81
2022-10-11T08:07:20.826Z,9.82
2022-10-11T08:08:22.571Z,9.89
2022-10-11T08:09:24.304Z,10.03
2022-10-11T08:10:26.054Z,10.18
2022-10-11T08:11:27.753Z,10.3
2022-10-11T08:12:29.518Z,10.45
2022-10-11T08:13:31.239Z,10.67
2022-10-11T08:14:32.991Z,10.87
2022-10-11T08:15:34.728Z,11.07
2022-10-11T08:16:36.458Z,11.24
2022-10-11T08:17:38.192Z,11.44
2022-10-11T08:18:39.905Z,11.6
2022-10-11T08:19:41.650Z,11.77
2022-10-11T08:20:43.421Z,11.95
2022-10-11T08:21:45.121Z,12.14
2022-10-11T08:22:46.866Z,12.31
2022-10-11T08:23:48.574Z,12.51
2022-10-11T08:24:56.288Z,12.63
2022-10-11T08:25:52.069Z,12.89
2022-10-11T08:26:53.797Z,13.13
2022-10-11T08:27:55.539Z,13.31
2022-10-11T08:28:57.308Z,13.55
2022-10-11T08:29:59.000Z,13.77
2022-10-11T08:31:00.742Z,14.01
2022-10-11T08:32:02.470Z,14.16
2022-10-11T08:33:08.479Z,14.33
2022-10-11T08:34:05.948Z,14.57
2022-10-11T08:35:07.664Z,14.87
2022-10-11T08:36:09.915Z,15.01
2022-10-11T08:37:11.139Z,15.12
2022-10-11T08:38:12.887Z,15.23
2022-10-11T08:39:14.619Z,15.39
2022-10-11T08:40:16.333Z,15.6
2022-10-11T08:41:18.089Z,15.75
2022-10-11T08:42:19.803Z,15.97
2022-10-11T08:43:21.533Z,16.01
2022-10-11T08:44:23.299Z,16.23
2022-10-11T08:45:25.022Z,16.23
2022-10-11T08:46:26.785Z,16.5
2022-10-11T08:47:28.478Z,16.7
2022-10-11T08:48:30.231Z,16.8
2022-10-11T08:49:31.977Z,16.68
2022-10-11T08:50:33.713Z,16.63
2022-10-11T08:51:35.431Z,16.68
2022-10-11T08:52:37.162Z,16.51
2022-10-11T08:53:38.901Z,16.44
2022-10-11T08:54:40.639Z,16.3
2022-10-11T08:55:42.377Z,16.2
2022-10-11T08:56:44.105Z,15.99
2022-10-11T08:57:45.834Z,15.78
2022-10-11T08:58:47.624Z,15.67
2022-10-11T08:59:49.313Z,15.46
2022-10-11T09:00:51.070Z,15.26
2022-10-11T09:01:52.925Z,15.19
2022-10-11T09:03:07.894Z,15.1
2022-10-11T09:03:56.248Z,14.99
2022-10-11T09:04:57.994Z,14.92
2022-10-11T09:05:59.718Z,14.79
2022-10-11T09:07:04.758Z,14.71
2022-10-11T09:08:03.182Z,14.47
2022-10-11T09:09:04.914Z,14.4
2022-10-11T09:10:06.664Z,14.37
2022-10-11T09:11:08.392Z,14.23
2022-10-11T09:12:10.118Z,14.13
2022-10-11T09:13:11.852Z,14.14
2022-10-11T09:14:13.588Z,14.12
2022-10-11T09:15:15.327Z,14.08
2022-10-11T09:16:17.063Z,14.1
2022-10-11T09:17:18.804Z,14.13
2022-10-11T09:18:20.529Z,14.12
2022-10-11T09:19:22.277Z,14.11
2022-10-11T09:20:24.032Z,14.14
2022-10-11T09:21:25.731Z,14.11
2022-10-11T09:22:30.537Z,14.12
2022-10-11T09:23:29.213Z,14.11
2022-10-11T09:24:30.929Z,14.09
2022-10-11T09:25:32.703Z,14.04
2022-10-11T09:26:34.421Z,14.08
2022-10-11T09:28:00.833Z,14.07
2022-10-11T09:28:38.018Z,14.01
2022-10-11T09:29:39.616Z,13.99
2022-10-11T09:30:41.382Z,13.98
2022-10-11T09:31:43.093Z,13.97
2022-10-11T09:32:44.873Z,13.97
2022-10-11T09:33:46.572Z,13.98
2022-10-11T09:34:48.299Z,13.97
2022-10-11T09:35:50.030Z,13.99
2022-10-11T09:36:51.763Z,13.98
2022-10-11T09:37:53.504Z,13.99
2022-10-11T09:38:55.237Z,13.93
2022-10-11T09:39:57.003Z,13.92
2022-10-11T09:40:58.726Z,13.94
2022-10-11T09:42:00.447Z,13.95
2022-10-11T09:43:02.187Z,13.98
2022-10-11T09:44:03.930Z,13.98
2022-10-11T09:45:05.645Z,14.01
2022-10-11T09:46:07.842Z,14.03
2022-10-11T09:47:09.111Z,14.05
2022-10-11T09:48:10.849Z,14.04
2022-10-11T09:49:12.592Z,14.08
2022-10-11T09:50:14.330Z,14.1
2022-10-11T09:51:16.067Z,14.09
2022-10-11T09:52:17.786Z,14.12
2022-10-11T09:53:19.530Z,14.16
2022-10-11T09:54:21.262Z,14.19
2022-10-11T09:55:23.005Z,14.22
2022-10-11T09:56:24.729Z,14.24
2022-10-11T09:57:26.464Z,14.27
2022-10-11T09:58:28.191Z,14.29
2022-10-11T09:59:29.931Z,14.32
2022-10-11T10:00:31.703Z,14.37
2022-10-11T10:01:33.483Z,14.37
2022-10-11T10:02:35.143Z,14.35
2022-10-11T10:03:36.875Z,14.37
2022-10-11T10:04:38.605Z,14.39
2022-10-11T10:05:40.372Z,14.37
2022-10-11T10:06:42.085Z,14.38
2022-10-11T10:07:43.814Z,14.37
2022-10-11T10:08:45.559Z,14.28
2022-10-11T10:09:47.276Z,14.28
2022-10-11T10:10:49.021Z,14.3
2022-10-11T10:11:50.754Z,14.32
2022-10-11T10:12:52.522Z,14.32
2022-10-11T10:13:54.219Z,14.3
2022-10-11T10:14:55.964Z,14.29
2022-10-11T10:15:57.698Z,14.28
2022-10-11T10:16:59.432Z,14.26
2022-10-11T10:18:01.169Z,14.26
2022-10-11T10:19:02.927Z,14.22
2022-10-11T10:20:04.613Z,14.23
2022-10-11T10:21:06.375Z,14.18
2022-10-11T10:22:08.127Z,14.16
2022-10-11T10:23:09.907Z,14.2
2022-10-11T10:24:11.576Z,14.23
2022-10-11T10:25:13.305Z,14.24
2022-10-11T10:26:15.036Z,14.26
2022-10-11T10:27:16.782Z,14.31
2022-10-11T10:28:18.592Z,14.36
2022-10-11T10:29:20.262Z,14.44
2022-10-11T10:30:21.983Z,14.52
2022-10-11T10:31:23.736Z,14.6
2022-10-11T10:32:26.295Z,14.73
2022-10-11T10:33:27.181Z,14.89
2022-10-11T10:34:28.930Z,14.95
2022-10-11T10:35:30.679Z,15.19
2022-10-11T10:36:32.388Z,15.33
2022-10-11T10:37:34.129Z,15.47
2022-10-11T10:38:35.859Z,15.65
2022-10-11T10:39:37.627Z,15.76
2022-10-11T10:40:39.353Z,15.75
2022-10-11T10:41:41.066Z,15.91
2022-10-11T10:42:42.800Z,16.03
2022-10-11T10:43:44.545Z,16.17
2022-10-11T10:44:46.282Z,16.34
2022-10-11T10:45:48.050Z,16.53
2022-10-11T10:46:49.763Z,16.48
2022-10-11T10:47:51.488Z,16.6
2022-10-11T10:49:41.147Z,16.75
2022-10-11T10:49:55.330Z,16.84
2022-10-11T10:50:56.723Z,16.82
2022-10-11T10:51:58.431Z,16.83
2022-10-11T10:53:00.166Z,16.78
2022-10-11T10:54:01.910Z,16.79
2022-10-11T10:55:03.628Z,16.78
2022-10-11T10:56:05.630Z,16.76
2022-10-11T10:57:07.104Z,16.76
2022-10-11T10:58:08.840Z,16.64
2022-10-11T10:59:10.582Z,16.58
2022-10-11T11:00:19.413Z,16.54
2022-10-11T11:01:14.131Z,16.49
2022-10-11T11:02:39.160Z,16.44
2022-10-11T11:03:17.558Z,16.46
2022-10-11T11:04:19.248Z,16.49
2022-10-11T11:05:20.991Z,16.49
2022-10-11T11:06:22.723Z,16.5
2022-10-11T11:07:24.459Z,16.53
2022-10-11T11:08:26.192Z,16.49
2022-10-11T11:09:27.925Z,16.4
2022-10-11T11:10:29.689Z,16.44
2022-10-11T11:11:31.394Z,16.41
2022-10-11T11:12:33.132Z,16.45
2022-10-11T11:13:34.857Z,16.44
2022-10-11T11:14:36.602Z,16.44
2022-10-11T11:15:38.461Z,16.41
2022-10-11T11:16:40.067Z,16.42
2022-10-11T11:17:41.806Z,16.41
2022-10-11T11:18:43.539Z,16.44
2022-10-11T11:19:45.278Z,16.37
2022-10-11T11:20:47.034Z,16.29
2022-10-11T11:21:48.751Z,16.27
2022-10-11T11:22:50.473Z,16.25
2022-10-11T11:23:52.216Z,16.21
2022-10-11T11:24:53.964Z,16.08
2022-10-11T11:25:55.696Z,16.05
2022-10-11T11:26:57.434Z,16.03
2022-10-11T11:27:59.152Z,15.93
2022-10-11T11:29:00.904Z,15.87
2022-10-11T11:30:02.623Z,15.86
2022-10-11T11:31:04.804Z,15.81
2022-10-11T11:32:06.104Z,15.78
2022-10-11T11:33:07.843Z,15.77
2022-10-11T11:34:09.578Z,15.74
2022-10-11T11:35:11.307Z,15.64
2022-10-11T11:36:13.054Z,15.54
2022-10-11T11:37:14.785Z,15.51
2022-10-11T11:38:16.527Z,15.45
2022-10-11T11:39:18.245Z,15.39
2022-10-11T11:40:19.982Z,15.3
2022-10-11T11:41:21.725Z,15.25
2022-10-11T11:42:23.470Z,15.2
2022-10-11T11:43:25.176Z,15.18
2022-10-11T11:44:27.707Z,15.14
2022-10-11T11:45:28.650Z,15.02
2022-10-11T11:46:30.403Z,15
2022-10-11T11:47:32.146Z,14.98
2022-10-11T11:48:33.866Z,14.99
2022-10-11T11:49:35.736Z,14.98
2022-10-11T11:50:37.353Z,14.97
2022-10-11T11:51:39.125Z,14.96
2022-10-11T11:52:40.802Z,14.93
2022-10-11T11:53:42.533Z,14.92
2022-10-11T11:54:44.280Z,14.9
2022-10-11T11:55:46.006Z,14.89
2022-10-11T11:56:50.764Z,14.88
2022-10-11T11:57:49.475Z,14.86
2022-10-11T11:58:51.206Z,14.85
2022-10-11T11:59:52.939Z,14.84
2022-10-11T12:00:54.709Z,14.84
2022-10-11T12:01:56.422Z,14.84
2022-10-11T12:02:58.139Z,14.83
2022-10-11T12:03:59.893Z,14.82
2022-10-11T12:05:01.656Z,14.78
2022-10-11T12:06:03.358Z,14.78
2022-10-11T12:07:15.967Z,14.75
2022-10-11T12:08:06.835Z,14.76
2022-10-11T12:09:08.563Z,14.77
2022-10-11T12:10:10.300Z,14.77
2022-10-11T12:11:12.040Z,14.78
2022-10-11T12:12:13.764Z,14.77
2022-10-11T12:13:15.559Z,14.76
2022-10-11T12:14:17.227Z,14.75
2022-10-11T12:15:18.957Z,14.75
2022-10-11T12:16:20.705Z,14.74
2022-10-11T12:17:22.442Z,14.72
2022-10-11T12:18:24.192Z,14.73
2022-10-11T12:19:25.927Z,14.72
2022-10-11T12:20:27.636Z,14.72
2022-10-11T12:21:29.381Z,14.72
2022-10-11T12:22:31.132Z,14.72
2022-10-11T12:23:32.860Z,14.72
2022-10-11T12:24:34.592Z,14.73
2022-10-11T12:25:36.332Z,14.73
2022-10-11T12:26:38.064Z,14.73
2022-10-11T12:27:39.815Z,14.76
2022-10-11T12:28:41.587Z,14.77
2022-10-11T12:29:43.258Z,14.77
2022-10-11T12:30:45.005Z,14.8
2022-10-11T12:31:46.743Z,14.8
2022-10-11T12:32:48.486Z,14.82
2022-10-11T12:33:50.196Z,14.84
2022-10-11T12:34:51.951Z,14.84
2022-10-11T12:35:53.679Z,14.86
2022-10-11T12:36:55.405Z,14.88
2022-10-11T12:37:57.141Z,14.88
2022-10-11T12:38:58.885Z,14.89
2022-10-11T12:40:00.607Z,14.89
2022-10-11T12:41:02.342Z,14.89
2022-10-11T12:42:07.124Z,14.86
2022-10-11T12:43:05.821Z,14.88
2022-10-11T12:44:07.552Z,14.87
2022-10-11T12:45:09.291Z,14.86
2022-10-11T12:46:11.037Z,14.86
2022-10-11T12:47:12.761Z,14.86
2022-10-11T12:48:14.508Z,14.87
2022-10-11T12:49:16.227Z,14.88
2022-10-11T12:50:17.964Z,14.89
2022-10-11T12:51:19.706Z,14.89
2022-10-11T12:52:21.462Z,14.89
2022-10-11T12:53:23.159Z,14.88
2022-10-11T12:54:27.354Z,14.88
2022-10-11T12:55:26.635Z,14.88
2022-10-11T12:56:28.378Z,14.86
2022-10-11T12:57:30.108Z,14.85
2022-10-11T12:58:31.904Z,14.83
2022-10-11T12:59:33.585Z,14.81
2022-10-11T13:00:35.297Z,14.81
2022-10-11T13:01:37.097Z,14.79
2022-10-11T13:02:38.784Z,14.79
2022-10-11T13:03:40.517Z,14.8
2022-10-11T13:04:57.683Z,14.81
2022-10-11T13:05:45.324Z,14.82
2022-10-11T13:06:45.728Z,14.83
2022-10-11T13:07:47.457Z,14.83
2022-10-11T13:08:49.193Z,14.85
2022-10-11T13:09:50.920Z,14.86
2022-10-11T13:10:52.666Z,14.86
2022-10-11T13:11:54.397Z,14.87
2022-10-11T13:12:56.135Z,14.88
2022-10-11T13:13:57.871Z,14.89
2022-10-11T13:14:59.611Z,14.89
2022-10-11T13:16:01.328Z,14.9
2022-10-11T13:17:03.093Z,14.92
2022-10-11T13:18:04.819Z,14.92
2022-10-11T13:19:06.530Z,14.9
2022-10-11T13:20:08.338Z,14.92
2022-10-11T13:21:10.026Z,14.93
2022-10-11T13:22:11.746Z,14.93
2022-10-11T13:23:14.619Z,14.94
2022-10-11T13:24:15.214Z,14.95
2022-10-11T13:25:16.952Z,14.94
2022-10-11T13:26:18.703Z,14.95
2022-10-11T13:27:20.422Z,14.97
2022-10-11T13:28:22.287Z,14.97